createdAt,value
2018-08-31T00:00:46.501Z,12.85
2018-08-31T00:01:46.447Z,12.85
2018-08-31T00:02:46.515Z,12.91
2018-08-31T00:03:46.392Z,12.92
2018-08-31T00:05:32.345Z,12.80
2018-08-31T00:06:32.281Z,12.76
2018-08-31T00:08:26.595Z,12.76
2018-08-31T00:09:26.581Z,12.77
2018-08-31T00:11:20.554Z,12.74
2018-08-31T00:12:20.341Z,12.71
2018-08-31T00:13:20.310Z,12.73
2018-08-31T00:14:20.320Z,12.73
2018-08-31T00:15:20.262Z,12.67
2018-08-31T00:16:20.240Z,12.66
2018-08-31T00:17:20.207Z,12.74
2018-08-31T00:18:20.192Z,12.62
2018-08-31T00:19:20.164Z,12.62
2018-08-31T00:20:20.143Z,12.76
2018-08-31T00:21:20.117Z,12.66
2018-08-31T00:22:20.089Z,12.67
2018-08-31T00:23:20.063Z,12.59
2018-08-31T00:24:20.039Z,12.59
2018-08-31T00:25:20.008Z,12.61
2018-08-31T00:26:19.994Z,12.66
2018-08-31T00:27:20.095Z,12.69
2018-08-31T00:28:19.936Z,12.67
2018-08-31T00:29:19.909Z,12.73
2018-08-31T00:30:20.024Z,12.73
2018-08-31T00:31:19.873Z,12.61
2018-08-31T00:32:19.862Z,12.58
2018-08-31T00:33:19.851Z,12.55
2018-08-31T00:34:19.782Z,12.58
2018-08-31T00:35:19.837Z,12.49
2018-08-31T00:36:19.862Z,12.55
2018-08-31T00:37:19.713Z,12.49
2018-08-31T00:38:19.687Z,12.51
2018-08-31T00:39:19.771Z,12.44
2018-08-31T00:40:19.633Z,12.48
2018-08-31T00:41:19.602Z,12.51
2018-08-31T00:42:19.613Z,12.40
2018-08-31T00:43:19.559Z,12.37
2018-08-31T00:44:19.539Z,12.41
2018-08-31T00:45:19.513Z,12.43
2018-08-31T00:46:19.617Z,12.38
2018-08-31T00:47:19.464Z,12.33
2018-08-31T00:48:19.525Z,12.31
2018-08-31T00:49:19.424Z,12.34
2018-08-31T00:50:19.546Z,12.40
2018-08-31T00:51:19.361Z,12.30
2018-08-31T00:52:19.453Z,12.34
2018-08-31T00:53:19.310Z,12.37
2018-08-31T00:54:19.365Z,12.22
2018-08-31T00:55:19.264Z,12.22
2018-08-31T00:56:19.389Z,12.22
2018-08-31T00:57:19.221Z,12.22
2018-08-31T00:58:19.288Z,12.23
2018-08-31T00:59:19.151Z,12.22
2018-08-31T01:00:19.300Z,12.31
2018-08-31T01:01:19.112Z,12.25
2018-08-31T01:02:19.212Z,12.31
2018-08-31T01:03:19.056Z,12.30
2018-08-31T01:04:19.120Z,12.26
2018-08-31T01:05:18.999Z,12.18
2018-08-31T01:06:19.152Z,12.13
2018-08-31T01:07:18.957Z,12.15
2018-08-31T01:08:19.057Z,12.18
2018-08-31T01:09:18.903Z,12.11
2018-08-31T01:10:18.975Z,12.16
2018-08-31T01:11:18.874Z,12.13
2018-08-31T01:12:18.975Z,12.13
2018-08-31T01:13:18.854Z,12.04
2018-08-31T01:14:18.884Z,12.03
2018-08-31T01:15:18.758Z,12.08
2018-08-31T01:16:18.937Z,12.15
2018-08-31T01:18:04.880Z,12.12
2018-08-31T01:19:04.836Z,12.07
2018-08-31T01:20:58.640Z,12.05
2018-08-31T01:21:58.599Z,12.05
2018-08-31T01:22:58.566Z,11.98
2018-08-31T01:23:58.546Z,12.01
2018-08-31T01:24:58.510Z,11.94
2018-08-31T01:25:58.487Z,11.96
2018-08-31T01:26:58.467Z,11.98
2018-08-31T01:27:59.529Z,11.96
2018-08-31T01:28:58.418Z,11.93
2018-08-31T01:29:58.522Z,11.87
2018-08-31T01:30:58.372Z,11.87
2018-08-31T01:31:59.446Z,11.90
2018-08-31T01:32:58.319Z,11.93
2018-08-31T01:33:58.490Z,11.97
2018-08-31T01:34:58.268Z,11.90
2018-08-31T01:35:58.379Z,11.94
2018-08-31T01:36:58.249Z,11.97
2018-08-31T01:37:58.365Z,11.94
2018-08-31T01:38:58.156Z,11.94
2018-08-31T01:39:58.280Z,11.85
2018-08-31T01:40:58.110Z,11.84
2018-08-31T01:41:58.188Z,11.81
2018-08-31T01:42:58.071Z,11.77
2018-08-31T01:43:58.199Z,11.77
2018-08-31T01:44:58.032Z,11.77
2018-08-31T01:45:58.117Z,11.78
2018-08-31T01:46:57.979Z,11.72
2018-08-31T01:47:58.130Z,11.72
2018-08-31T01:48:57.913Z,11.69
2018-08-31T01:49:58.040Z,11.77
2018-08-31T01:50:57.861Z,11.70
2018-08-31T01:51:57.956Z,11.62
2018-08-31T01:52:57.810Z,11.69
2018-08-31T01:53:57.968Z,11.54
2018-08-31T01:54:57.757Z,11.57
2018-08-31T01:55:57.879Z,11.69
2018-08-31T01:56:57.703Z,11.63
2018-08-31T01:57:57.787Z,11.59
2018-08-31T01:58:57.653Z,11.53
2018-08-31T01:59:57.802Z,11.62
2018-08-31T02:00:57.613Z,11.51
2018-08-31T02:01:57.710Z,11.59
2018-08-31T02:02:57.591Z,11.54
2018-08-31T02:03:57.729Z,11.57
2018-08-31T02:04:57.509Z,11.53
2018-08-31T02:05:57.642Z,11.49
2018-08-31T02:06:57.449Z,11.41
2018-08-31T02:07:57.547Z,11.46
2018-08-31T02:08:57.406Z,11.53
2018-08-31T02:09:57.564Z,11.46
2018-08-31T02:10:57.361Z,11.44
2018-08-31T02:11:57.475Z,11.48
2018-08-31T02:12:57.297Z,11.48
2018-08-31T02:13:57.384Z,11.42
2018-08-31T02:14:57.251Z,11.39
2018-08-31T02:15:57.395Z,11.41
2018-08-31T02:16:57.201Z,11.42
2018-08-31T02:17:57.327Z,11.41
2018-08-31T02:18:57.153Z,11.39
2018-08-31T02:19:57.324Z,11.48
2018-08-31T02:20:57.098Z,11.23
2018-08-31T02:21:57.239Z,11.36
2018-08-31T02:22:57.057Z,11.30
2018-08-31T02:23:57.151Z,11.28
2018-08-31T02:24:57.004Z,11.28
2018-08-31T02:25:57.165Z,11.16
2018-08-31T02:26:56.941Z,11.28
2018-08-31T02:27:57.085Z,11.23
2018-08-31T02:28:56.889Z,11.21
2018-08-31T02:29:56.933Z,11.24
2018-08-31T02:30:56.860Z,11.23
2018-08-31T02:31:56.941Z,11.30
2018-08-31T02:32:56.794Z,11.27
2018-08-31T02:33:56.854Z,11.17
2018-08-31T02:34:56.748Z,11.23
2018-08-31T02:35:56.868Z,11.21
2018-08-31T02:36:56.696Z,11.12
2018-08-31T02:37:56.768Z,11.13
2018-08-31T02:38:56.650Z,11.13
2018-08-31T02:39:56.688Z,11.16
2018-08-31T02:41:42.958Z,11.12
2018-08-31T02:42:42.907Z,11.20
2018-08-31T02:43:42.879Z,11.02
2018-08-31T02:44:43.001Z,10.98
2018-08-31T02:45:42.824Z,11.02
2018-08-31T02:46:42.902Z,10.90
2018-08-31T02:47:42.783Z,10.90
2018-08-31T02:48:42.837Z,10.99
2018-08-31T02:49:42.725Z,10.91
2018-08-31T02:50:42.866Z,11.03
2018-08-31T02:51:42.675Z,10.93
2018-08-31T02:52:42.667Z,10.88
2018-08-31T02:53:42.628Z,10.86
2018-08-31T02:54:42.599Z,10.95
2018-08-31T02:55:42.571Z,10.90
2018-08-31T02:56:42.546Z,10.88
2018-08-31T02:57:42.736Z,10.83
2018-08-31T02:58:42.500Z,10.87
2018-08-31T02:59:42.635Z,10.94
2018-08-31T03:00:42.447Z,10.76
2018-08-31T03:01:42.538Z,10.75
2018-08-31T03:02:42.403Z,10.78
2018-08-31T03:03:42.553Z,10.78
2018-08-31T03:04:42.357Z,10.83
2018-08-31T03:05:42.459Z,10.75
2018-08-31T03:06:42.297Z,10.80
2018-08-31T03:07:42.375Z,10.75
2018-08-31T03:08:42.243Z,10.78
2018-08-31T03:09:42.400Z,10.78
2018-08-31T03:10:42.208Z,10.81
2018-08-31T03:11:42.377Z,10.87
2018-08-31T03:12:42.159Z,10.81
2018-08-31T03:13:42.316Z,10.87
2018-08-31T03:14:42.118Z,10.88
2018-08-31T03:15:42.226Z,10.86
2018-08-31T03:16:42.055Z,10.84
2018-08-31T03:17:42.141Z,10.94
2018-08-31T03:18:42.001Z,10.86
2018-08-31T03:19:42.159Z,10.93
2018-08-31T03:20:41.940Z,10.87
2018-08-31T03:21:42.072Z,10.94
2018-08-31T03:22:41.917Z,10.86
2018-08-31T03:23:42.081Z,10.81
2018-08-31T03:24:41.852Z,10.86
2018-08-31T03:25:41.994Z,10.94
2018-08-31T03:26:41.792Z,10.94
2018-08-31T03:27:41.901Z,11.06
2018-08-31T03:28:41.746Z,11.09
2018-08-31T03:29:41.937Z,10.99
2018-08-31T03:30:41.683Z,10.93
2018-08-31T03:31:41.828Z,10.95
2018-08-31T03:32:41.636Z,10.95
2018-08-31T03:33:41.742Z,11.05
2018-08-31T03:34:41.599Z,11.02
2018-08-31T03:35:41.754Z,11.08
2018-08-31T03:36:41.547Z,11.05
2018-08-31T03:37:41.665Z,11.13
2018-08-31T03:38:41.497Z,11.11
2018-08-31T03:39:41.678Z,11.21
2018-08-31T03:40:41.454Z,11.17
2018-08-31T03:41:41.584Z,11.12
2018-08-31T03:42:41.397Z,11.17
2018-08-31T03:43:41.498Z,11.13
2018-08-31T03:44:41.340Z,11.17
2018-08-31T03:45:41.514Z,11.17
2018-08-31T03:46:41.283Z,11.26
2018-08-31T03:47:41.349Z,11.26
2018-08-31T03:48:41.226Z,11.26
2018-08-31T03:49:41.241Z,11.19
2018-08-31T03:50:41.183Z,11.21
2018-08-31T03:51:41.246Z,11.23
2018-08-31T03:52:41.130Z,11.24
2018-08-31T03:53:41.265Z,11.28
2018-08-31T03:54:41.085Z,11.27
2018-08-31T03:55:42.100Z,11.27
2018-08-31T03:56:41.029Z,11.33
2018-08-31T03:57:41.078Z,11.36
2018-08-31T03:58:40.978Z,11.31
2018-08-31T03:59:40.987Z,11.36
2018-08-31T04:00:40.923Z,11.30
2018-08-31T04:01:41.111Z,11.33
2018-08-31T04:02:40.876Z,11.33
2018-08-31T04:03:40.919Z,11.33
2018-08-31T04:04:40.831Z,11.31
2018-08-31T04:05:40.832Z,11.28
2018-08-31T04:06:40.786Z,11.46
2018-08-31T04:07:40.853Z,11.39
2018-08-31T04:08:40.727Z,11.39
2018-08-31T04:09:40.755Z,11.45
2018-08-31T04:10:40.678Z,11.45
2018-08-31T04:11:40.770Z,11.45
2018-08-31T04:12:40.618Z,11.51
2018-08-31T04:13:40.696Z,11.48
2018-08-31T04:14:40.573Z,11.44
2018-08-31T04:15:40.617Z,11.48
2018-08-31T04:16:40.525Z,11.41
2018-08-31T04:17:40.610Z,11.46
2018-08-31T04:18:40.480Z,11.41
2018-08-31T04:19:40.529Z,11.27
2018-08-31T04:20:40.417Z,11.38
2018-08-31T04:21:40.547Z,11.35
2018-08-31T04:22:40.389Z,11.30
2018-08-31T04:23:40.447Z,11.28
2018-08-31T04:24:40.319Z,11.38
2018-08-31T04:25:40.350Z,11.38
2018-08-31T04:26:40.293Z,11.38
2018-08-31T04:27:40.366Z,11.44
2018-08-31T04:28:40.211Z,11.41
2018-08-31T04:29:40.296Z,11.44
2018-08-31T04:30:40.169Z,11.39
2018-08-31T04:31:40.185Z,11.42
2018-08-31T04:32:40.149Z,11.51
2018-08-31T04:33:40.208Z,11.33
2018-08-31T04:34:40.063Z,11.28
2018-08-31T04:35:40.122Z,11.36
2018-08-31T04:36:40.016Z,11.35
2018-08-31T04:37:41.883Z,11.27
2018-08-31T04:38:39.962Z,11.33
2018-08-31T04:39:39.953Z,11.36
2018-08-31T04:40:39.910Z,11.28
2018-08-31T04:41:39.881Z,11.28
2018-08-31T04:42:39.919Z,11.31
2018-08-31T04:44:25.830Z,11.41
2018-08-31T04:45:25.760Z,11.30
2018-08-31T04:46:25.746Z,11.27
2018-08-31T04:47:25.717Z,11.31
2018-08-31T04:48:25.683Z,11.24
2018-08-31T04:49:25.718Z,11.30
2018-08-31T04:50:25.681Z,11.28
2018-08-31T04:51:25.637Z,11.39
2018-08-31T04:52:25.589Z,11.30
2018-08-31T04:53:25.584Z,11.39
2018-08-31T04:54:25.541Z,11.49
2018-08-31T04:55:25.510Z,11.44
2018-08-31T04:56:25.485Z,11.49
2018-08-31T04:57:25.463Z,11.48
2018-08-31T04:58:25.429Z,11.51
2018-08-31T04:59:25.413Z,11.53
2018-08-31T05:00:25.374Z,11.49
2018-08-31T05:01:25.440Z,11.41
2018-08-31T05:02:25.344Z,11.49
2018-08-31T05:03:25.352Z,11.57
2018-08-31T05:04:25.280Z,11.49
2018-08-31T05:05:25.277Z,11.59
2018-08-31T05:06:25.227Z,11.57
2018-08-31T05:07:25.207Z,11.66
2018-08-31T05:08:25.182Z,11.54
2018-08-31T05:09:25.154Z,11.54
2018-08-31T05:10:25.193Z,11.60
2018-08-31T05:11:25.100Z,11.72
2018-08-31T05:12:25.208Z,11.66
2018-08-31T05:13:25.090Z,11.70
2018-08-31T05:14:25.118Z,11.69
2018-08-31T05:15:24.993Z,11.67
2018-08-31T05:16:25.055Z,11.74
2018-08-31T05:17:24.972Z,11.70
2018-08-31T05:18:25.050Z,11.77
2018-08-31T05:19:24.887Z,11.79
2018-08-31T05:20:24.953Z,11.74
2018-08-31T05:21:24.855Z,11.79
2018-08-31T05:22:25.140Z,11.87
2018-08-31T05:23:24.790Z,11.85
2018-08-31T05:24:24.880Z,11.81
2018-08-31T05:25:24.759Z,11.88
2018-08-31T05:26:24.790Z,11.85
2018-08-31T05:27:24.700Z,11.85
2018-08-31T05:28:24.809Z,11.88
2018-08-31T05:29:24.641Z,11.97
2018-08-31T05:30:24.714Z,11.97
2018-08-31T05:31:24.584Z,12.00
2018-08-31T05:32:24.629Z,12.03
2018-08-31T05:33:24.556Z,12.04
2018-08-31T05:34:24.638Z,12.03
2018-08-31T05:35:24.479Z,11.97
2018-08-31T05:36:24.653Z,11.98
2018-08-31T05:37:24.453Z,12.12
2018-08-31T05:38:24.519Z,12.08
2018-08-31T05:39:24.378Z,12.00
2018-08-31T05:40:24.427Z,11.98
2018-08-31T05:41:24.330Z,12.01
2018-08-31T05:42:24.365Z,12.04
2018-08-31T05:43:24.279Z,12.18
2018-08-31T05:44:24.363Z,12.18
2018-08-31T05:45:24.226Z,12.21
2018-08-31T05:46:24.268Z,12.31
2018-08-31T05:47:24.184Z,12.19
2018-08-31T05:48:24.178Z,12.19
2018-08-31T05:49:24.134Z,12.49
2018-08-31T05:50:24.179Z,12.73
2018-08-31T05:51:24.139Z,12.79
2018-08-31T05:52:24.091Z,12.74
2018-08-31T05:53:24.044Z,12.81
2018-08-31T05:54:24.109Z,12.79
2018-08-31T05:55:23.977Z,12.79
2018-08-31T05:56:24.019Z,12.79
2018-08-31T05:57:23.937Z,12.80
2018-08-31T05:58:23.933Z,12.77
2018-08-31T05:59:23.886Z,12.79
2018-08-31T06:00:23.946Z,12.80
2018-08-31T06:01:23.815Z,12.81
2018-08-31T06:02:23.856Z,12.74
2018-08-31T06:03:23.764Z,12.84
2018-08-31T06:04:23.758Z,12.87
2018-08-31T06:05:23.713Z,12.71
2018-08-31T06:06:23.687Z,12.80
2018-08-31T06:07:23.689Z,12.88
2018-08-31T06:08:23.635Z,12.79
2018-08-31T06:09:23.693Z,12.79
2018-08-31T06:10:23.653Z,12.76
2018-08-31T06:11:23.598Z,12.79
2018-08-31T06:12:23.541Z,12.79
2018-08-31T06:13:23.615Z,12.85
2018-08-31T06:14:23.495Z,12.85
2018-08-31T06:15:23.553Z,12.98
2018-08-31T06:16:23.441Z,12.94
2018-08-31T06:17:23.437Z,13.03
2018-08-31T06:18:23.401Z,13.01
2018-08-31T06:19:23.475Z,13.04
2018-08-31T06:20:23.328Z,13.07
2018-08-31T06:21:23.365Z,13.06
2018-08-31T06:22:23.289Z,13.19
2018-08-31T06:23:23.273Z,13.21
2018-08-31T06:24:23.226Z,13.19
2018-08-31T06:25:23.285Z,13.21
2018-08-31T06:26:23.180Z,13.28
2018-08-31T06:27:24.227Z,13.21
2018-08-31T06:28:23.154Z,13.16
2018-08-31T06:29:23.110Z,13.28
2018-08-31T06:30:23.088Z,13.31
2018-08-31T06:31:23.144Z,13.32
2018-08-31T06:32:23.032Z,13.29
2018-08-31T06:33:23.014Z,13.35
2018-08-31T06:34:23.137Z,13.41
2018-08-31T06:35:22.962Z,13.38
2018-08-31T06:36:23.013Z,13.36
2018-08-31T06:37:22.906Z,13.38
2018-08-31T06:38:23.048Z,13.39
2018-08-31T06:39:22.837Z,13.51
2018-08-31T06:40:22.948Z,13.54
2018-08-31T06:41:22.798Z,13.53
2018-08-31T06:42:22.868Z,13.57
2018-08-31T06:43:22.747Z,13.55
2018-08-31T06:44:22.874Z,13.83
2018-08-31T06:45:22.742Z,14.05
2018-08-31T06:46:22.780Z,14.01
2018-08-31T06:47:22.693Z,14.01
2018-08-31T06:48:22.815Z,13.96
2018-08-31T06:49:22.590Z,14.08
2018-08-31T06:50:22.708Z,14.08
2018-08-31T06:51:22.569Z,14.23
2018-08-31T06:52:22.650Z,14.17
2018-08-31T06:53:22.484Z,14.23
2018-08-31T06:54:22.656Z,14.29
2018-08-31T06:55:22.434Z,14.29
2018-08-31T06:56:22.469Z,14.36
2018-08-31T06:57:22.390Z,14.27
2018-08-31T06:58:22.455Z,14.31
2018-08-31T06:59:22.335Z,14.29
2018-08-31T07:00:22.469Z,14.42
2018-08-31T07:01:22.294Z,14.41
2018-08-31T07:02:22.404Z,14.44
2018-08-31T07:03:22.234Z,14.38
2018-08-31T07:04:22.395Z,14.38
2018-08-31T07:05:22.179Z,14.52
2018-08-31T07:06:22.301Z,14.53
2018-08-31T07:07:22.161Z,14.56
2018-08-31T07:08:24.280Z,14.57
2018-08-31T07:09:22.160Z,14.56
2018-08-31T07:10:23.186Z,14.61
2018-08-31T07:11:22.022Z,14.59
2018-08-31T07:12:22.259Z,14.57
2018-08-31T07:13:21.966Z,14.57
2018-08-31T07:14:22.032Z,14.57
2018-08-31T07:15:21.916Z,14.64
2018-08-31T07:16:22.049Z,14.72
2018-08-31T07:17:21.898Z,14.75
2018-08-31T07:18:21.934Z,14.71
2018-08-31T07:19:21.863Z,14.69
2018-08-31T07:20:21.849Z,14.79
2018-08-31T07:21:21.816Z,14.82
2018-08-31T07:22:21.869Z,14.87
2018-08-31T07:23:21.727Z,14.85
2018-08-31T07:24:22.081Z,14.94
2018-08-31T07:25:21.652Z,14.94
2018-08-31T07:26:21.700Z,15.00
2018-08-31T07:27:21.621Z,15.01
2018-08-31T07:28:21.587Z,15.11
2018-08-31T07:29:21.584Z,15.22
2018-08-31T07:30:21.622Z,15.18
2018-08-31T07:31:21.515Z,15.25
2018-08-31T07:32:21.473Z,15.34
2018-08-31T07:33:21.444Z,15.40
2018-08-31T07:34:21.426Z,15.59
2018-08-31T07:35:21.399Z,15.73
2018-08-31T07:36:21.390Z,15.74
2018-08-31T07:37:21.342Z,16.01
2018-08-31T07:38:21.323Z,16.08
2018-08-31T07:39:21.304Z,16.06
2018-08-31T07:40:21.301Z,16.04
2018-08-31T07:41:21.240Z,16.06
2018-08-31T07:42:21.345Z,16.08
2018-08-31T07:43:21.201Z,16.07
2018-08-31T07:44:21.156Z,16.07
2018-08-31T07:45:21.136Z,16.03
2018-08-31T07:46:21.110Z,16.06
2018-08-31T07:47:21.077Z,15.92
2018-08-31T07:48:21.355Z,16.01
2018-08-31T07:49:21.033Z,16.16
2018-08-31T07:50:21.022Z,16.04
2018-08-31T07:51:21.046Z,16.08
2018-08-31T07:52:20.949Z,16.08
2018-08-31T07:53:20.953Z,16.14
2018-08-31T07:54:21.023Z,16.18
2018-08-31T07:55:20.892Z,16.16
2018-08-31T07:56:20.932Z,16.16
2018-08-31T07:57:20.821Z,16.29
2018-08-31T07:58:20.804Z,16.16
2018-08-31T07:59:20.772Z,16.18
2018-08-31T08:00:20.749Z,16.32
2018-08-31T08:01:20.710Z,16.29
2018-08-31T08:02:20.692Z,16.30
2018-08-31T08:03:20.665Z,16.33
2018-08-31T08:04:20.643Z,16.33
2018-08-31T08:05:20.635Z,16.34
2018-08-31T08:06:20.598Z,16.34
2018-08-31T08:07:20.567Z,16.33
2018-08-31T08:08:20.549Z,16.44
2018-08-31T08:09:20.514Z,16.47
2018-08-31T08:10:20.509Z,16.50
2018-08-31T08:11:20.466Z,16.48
2018-08-31T08:12:20.468Z,16.47
2018-08-31T08:13:20.439Z,16.41
2018-08-31T08:14:20.382Z,16.42
2018-08-31T08:15:20.354Z,16.48
2018-08-31T08:16:20.364Z,16.52
2018-08-31T08:17:20.321Z,16.54
2018-08-31T08:18:20.292Z,16.77
2018-08-31T08:19:20.279Z,16.67
2018-08-31T08:20:20.241Z,16.63
2018-08-31T08:21:20.196Z,16.67
2018-08-31T08:22:20.185Z,16.82
2018-08-31T08:23:20.147Z,16.75
2018-08-31T08:24:20.242Z,16.69
2018-08-31T08:25:20.095Z,16.82
2018-08-31T08:26:20.072Z,16.88
2018-08-31T08:27:20.057Z,16.95
2018-08-31T08:28:20.151Z,17.00
2018-08-31T08:29:20.018Z,16.85
2018-08-31T08:30:19.979Z,17.03
2018-08-31T08:31:19.980Z,17.05
2018-08-31T08:32:19.985Z,17.02
2018-08-31T08:33:19.921Z,17.05
2018-08-31T08:34:19.892Z,17.02
2018-08-31T08:35:19.895Z,17.02
2018-08-31T08:36:19.815Z,17.05
2018-08-31T08:37:19.794Z,16.98
2018-08-31T08:38:19.795Z,17.06
2018-08-31T08:39:19.771Z,17.02
2018-08-31T08:40:19.736Z,16.99
2018-08-31T08:41:19.685Z,17.18
2018-08-31T08:42:19.697Z,17.20
2018-08-31T08:43:19.639Z,17.14
2018-08-31T08:44:19.614Z,17.15
2018-08-31T08:45:19.592Z,17.09
2018-08-31T08:46:19.613Z,17.10
2018-08-31T08:47:19.574Z,17.09
2018-08-31T08:48:19.580Z,17.15
2018-08-31T08:49:19.516Z,17.12
2018-08-31T08:50:20.479Z,17.18
2018-08-31T08:51:19.426Z,17.10
2018-08-31T08:52:19.459Z,16.96
2018-08-31T08:53:19.413Z,17.06
2018-08-31T08:54:19.350Z,17.05
2018-08-31T08:55:19.326Z,17.02
2018-08-31T08:56:19.309Z,17.02
2018-08-31T08:57:19.332Z,17.06
2018-08-31T08:58:19.267Z,16.98
2018-08-31T08:59:19.229Z,17.02
2018-08-31T09:00:19.201Z,16.95
2018-08-31T09:01:19.177Z,16.85
2018-08-31T09:03:05.134Z,16.90
2018-08-31T09:04:05.031Z,17.02
2018-08-31T09:05:05.000Z,17.18
2018-08-31T09:06:05.075Z,17.06
2018-08-31T09:07:04.948Z,17.18
2018-08-31T09:08:04.930Z,17.12
2018-08-31T09:09:04.893Z,17.17
2018-08-31T09:10:05.894Z,17.09
2018-08-31T09:11:04.853Z,17.15
2018-08-31T09:12:04.830Z,17.17
2018-08-31T09:13:04.787Z,17.18
2018-08-31T09:14:04.783Z,17.22
2018-08-31T09:15:04.775Z,17.38
2018-08-31T09:16:04.729Z,17.33
2018-08-31T09:17:04.702Z,17.39
2018-08-31T09:18:04.677Z,17.30
2018-08-31T09:19:04.652Z,17.35
2018-08-31T09:20:04.683Z,17.45
2018-08-31T09:21:04.610Z,17.46
2018-08-31T09:22:04.572Z,17.45
2018-08-31T09:23:04.554Z,17.39
2018-08-31T09:24:04.518Z,17.49
2018-08-31T09:25:04.499Z,17.57
2018-08-31T09:26:04.493Z,17.53
2018-08-31T09:27:04.432Z,17.58
2018-08-31T09:28:04.413Z,17.57
2018-08-31T09:29:04.386Z,17.58
2018-08-31T09:30:04.374Z,17.58
2018-08-31T09:31:04.323Z,17.73
2018-08-31T09:32:04.306Z,17.66
2018-08-31T09:33:04.280Z,17.70
2018-08-31T09:34:04.256Z,17.83
2018-08-31T09:35:04.227Z,17.73
2018-08-31T09:36:04.220Z,17.81
2018-08-31T09:37:04.174Z,17.91
2018-08-31T09:38:04.182Z,17.89
2018-08-31T09:39:04.142Z,17.86
2018-08-31T09:40:04.109Z,17.86
2018-08-31T09:41:04.068Z,17.94
2018-08-31T09:42:05.047Z,17.94
2018-08-31T09:43:04.017Z,17.86
2018-08-31T09:44:04.128Z,17.92
2018-08-31T09:45:03.976Z,17.95
2018-08-31T09:46:03.953Z,17.91
2018-08-31T09:47:03.917Z,17.96
2018-08-31T09:48:03.904Z,18.02
2018-08-31T09:49:03.872Z,18.05
2018-08-31T09:50:03.843Z,18.11
2018-08-31T09:51:03.837Z,18.32
2018-08-31T09:52:03.801Z,18.25
2018-08-31T09:53:03.749Z,18.41
2018-08-31T09:54:03.813Z,18.34
2018-08-31T09:55:03.758Z,18.31
2018-08-31T09:56:03.716Z,18.49
2018-08-31T09:57:03.653Z,18.53
2018-08-31T09:58:03.629Z,18.51
2018-08-31T09:59:03.595Z,18.51
2018-08-31T10:00:03.590Z,18.56
2018-08-31T10:01:03.555Z,18.50
2018-08-31T10:02:03.528Z,18.50
2018-08-31T10:03:03.498Z,18.60
2018-08-31T10:04:03.784Z,18.64
2018-08-31T10:05:03.511Z,18.69
2018-08-31T10:06:03.441Z,18.56
2018-08-31T10:07:03.393Z,18.60
2018-08-31T10:08:03.376Z,18.46
2018-08-31T10:09:03.343Z,18.38
2018-08-31T10:10:03.334Z,18.35
2018-08-31T10:11:03.283Z,18.35
2018-08-31T10:12:03.287Z,18.44
2018-08-31T10:13:03.403Z,18.47
2018-08-31T10:14:03.305Z,18.36
2018-08-31T10:15:03.208Z,18.54
2018-08-31T10:16:03.206Z,18.50
2018-08-31T10:17:03.130Z,18.38
2018-08-31T10:18:03.162Z,18.41
2018-08-31T10:19:03.101Z,18.39
2018-08-31T10:20:03.061Z,18.41
2018-08-31T10:21:03.045Z,18.46
2018-08-31T10:22:03.017Z,18.64
2018-08-31T10:23:02.974Z,18.68
2018-08-31T10:24:02.982Z,18.75
2018-08-31T10:25:02.924Z,18.71
2018-08-31T10:26:02.910Z,18.68
2018-08-31T10:27:02.879Z,18.75
2018-08-31T10:28:02.895Z,18.78
2018-08-31T10:29:02.829Z,18.83
2018-08-31T10:30:02.840Z,18.87
2018-08-31T10:31:02.801Z,19.05
2018-08-31T10:32:02.758Z,18.94
2018-08-31T10:33:02.764Z,19.23
2018-08-31T10:34:02.706Z,19.12
2018-08-31T10:35:02.661Z,19.02
2018-08-31T10:36:02.661Z,19.12
2018-08-31T10:37:02.627Z,18.94
2018-08-31T10:38:02.596Z,18.90
2018-08-31T10:39:02.590Z,18.91
2018-08-31T10:40:02.532Z,18.94
2018-08-31T10:41:02.512Z,18.93
2018-08-31T10:42:02.487Z,18.91
2018-08-31T10:43:02.457Z,18.83
2018-08-31T10:44:02.441Z,18.79
2018-08-31T10:45:02.423Z,18.82
2018-08-31T10:46:03.384Z,18.97
2018-08-31T10:47:02.358Z,18.89
2018-08-31T10:48:02.360Z,18.87
2018-08-31T10:49:02.331Z,18.83
2018-08-31T10:50:02.273Z,18.82
2018-08-31T10:51:02.253Z,18.84
2018-08-31T10:52:02.270Z,18.79
2018-08-31T10:53:02.219Z,18.72
2018-08-31T10:54:02.237Z,18.66
2018-08-31T10:55:02.167Z,18.72
2018-08-31T10:56:02.121Z,18.71
2018-08-31T10:57:02.251Z,18.74
2018-08-31T10:58:02.078Z,18.89
2018-08-31T10:59:02.052Z,18.83
2018-08-31T11:00:02.029Z,18.82
2018-08-31T11:01:01.989Z,18.79
2018-08-31T11:02:01.982Z,18.90
2018-08-31T11:03:01.983Z,18.83
2018-08-31T11:04:01.920Z,18.82
2018-08-31T11:05:01.888Z,18.83
2018-08-31T11:06:01.871Z,18.86
2018-08-31T11:07:01.834Z,18.89
2018-08-31T11:08:01.826Z,18.86
2018-08-31T11:09:01.780Z,18.79
2018-08-31T11:10:01.785Z,18.90
2018-08-31T11:11:01.734Z,18.89
2018-08-31T11:12:01.735Z,18.79
2018-08-31T11:13:01.756Z,18.83
2018-08-31T11:14:01.667Z,18.79
2018-08-31T11:15:01.715Z,18.87
2018-08-31T11:16:01.631Z,18.96
2018-08-31T11:17:01.590Z,18.90
2018-08-31T11:18:01.566Z,19.01
2018-08-31T11:19:01.707Z,18.94
2018-08-31T11:20:01.513Z,18.96
2018-08-31T11:21:01.478Z,18.99
2018-08-31T11:22:01.457Z,19.02
2018-08-31T11:23:01.426Z,18.97
2018-08-31T11:24:01.437Z,19.05
2018-08-31T11:25:01.373Z,18.91
2018-08-31T11:26:01.355Z,18.90
2018-08-31T11:27:01.329Z,18.91
2018-08-31T11:28:01.379Z,18.93
2018-08-31T11:29:01.376Z,19.06
2018-08-31T11:30:01.247Z,19.09
2018-08-31T11:31:01.274Z,19.21
2018-08-31T11:32:01.193Z,19.28
2018-08-31T11:33:01.160Z,19.38
2018-08-31T11:34:01.150Z,19.49
2018-08-31T11:35:01.149Z,19.40
2018-08-31T11:36:01.103Z,19.42
2018-08-31T11:37:01.060Z,19.53
2018-08-31T11:38:01.049Z,19.35
2018-08-31T11:39:01.010Z,19.24
2018-08-31T11:40:00.996Z,19.27
2018-08-31T11:41:00.957Z,19.39
2018-08-31T11:42:00.947Z,19.53
2018-08-31T11:43:00.928Z,19.53
2018-08-31T11:44:00.888Z,19.43
2018-08-31T11:45:00.880Z,19.53
2018-08-31T11:46:00.865Z,19.30
2018-08-31T11:47:00.806Z,19.23
2018-08-31T11:48:00.791Z,19.40
2018-08-31T11:49:00.750Z,19.34
2018-08-31T11:50:00.743Z,19.46
2018-08-31T11:51:00.698Z,19.40
2018-08-31T11:52:00.687Z,19.39
2018-08-31T11:53:00.648Z,19.42
2018-08-31T11:54:01.629Z,19.53
2018-08-31T11:55:00.601Z,19.53
2018-08-31T11:56:00.581Z,19.45
2018-08-31T11:57:00.549Z,19.35
2018-08-31T11:58:01.530Z,19.31
2018-08-31T11:59:00.515Z,19.30
2018-08-31T12:00:00.499Z,19.42
2018-08-31T12:01:00.489Z,19.49
2018-08-31T12:02:00.455Z,19.49
2018-08-31T12:03:00.399Z,19.35
2018-08-31T12:04:00.386Z,19.45
2018-08-31T12:05:00.358Z,19.43
2018-08-31T12:06:00.335Z,19.53
2018-08-31T12:07:00.294Z,19.53
2018-08-31T12:08:00.269Z,19.58
2018-08-31T12:09:00.247Z,19.60
2018-08-31T12:10:00.243Z,19.78
2018-08-31T12:11:00.190Z,19.72
2018-08-31T12:12:00.169Z,19.86
2018-08-31T12:13:00.139Z,19.82
2018-08-31T12:14:00.118Z,19.89
2018-08-31T12:15:00.093Z,20.01
2018-08-31T12:16:00.078Z,20.00
2018-08-31T12:17:00.047Z,19.94
2018-08-31T12:18:00.026Z,19.92
2018-08-31T12:19:00.015Z,19.86
2018-08-31T12:19:59.968Z,20.07
2018-08-31T12:20:59.941Z,20.07
2018-08-31T12:21:59.916Z,20.13
2018-08-31T12:22:59.893Z,20.17
2018-08-31T12:23:59.866Z,20.33
2018-08-31T12:24:59.834Z,20.20
2018-08-31T12:26:00.818Z,20.20
2018-08-31T12:26:59.785Z,20.15
2018-08-31T12:27:59.763Z,20.25
2018-08-31T12:28:59.736Z,20.16
2018-08-31T12:30:01.722Z,20.27
2018-08-31T12:30:59.680Z,20.38
2018-08-31T12:31:59.675Z,20.17
2018-08-31T12:32:59.625Z,19.97
2018-08-31T12:33:59.626Z,19.97
2018-08-31T12:34:59.583Z,19.98
2018-08-31T12:35:59.623Z,20.00
2018-08-31T12:36:59.540Z,20.00
2018-08-31T12:37:59.521Z,20.05
2018-08-31T12:38:59.490Z,20.02
2018-08-31T12:39:59.455Z,20.16
2018-08-31T12:40:59.436Z,20.02
2018-08-31T12:42:00.432Z,19.89
2018-08-31T12:42:59.395Z,19.87
2018-08-31T12:43:59.572Z,19.78
2018-08-31T12:44:59.351Z,19.75
2018-08-31T12:45:59.303Z,19.79
2018-08-31T12:46:59.328Z,19.85
2018-08-31T12:47:59.256Z,19.85
2018-08-31T12:48:59.227Z,19.90
2018-08-31T12:50:00.214Z,19.98
2018-08-31T12:50:59.172Z,19.90
2018-08-31T12:52:00.157Z,20.00
2018-08-31T12:52:59.130Z,19.79
2018-08-31T12:54:00.106Z,19.75
2018-08-31T12:54:59.075Z,19.83
2018-08-31T12:55:59.063Z,19.76
2018-08-31T12:56:59.035Z,19.79
2018-08-31T12:58:00.007Z,19.72
2018-08-31T12:58:58.974Z,19.62